sensor_id;sensor_type;location;lat;lon;timestamp;P1;durP1;ratioP1;P2;durP2;ratioP2
24961;SDS011;12992;50.884;13.668;2023-02-01T00:00:35;10.93;;;3.60;;
24961;SDS011;12992;50.884;13.668;2023-02-01T00:03:00;8.32;;;3.40;;
24961;SDS011;12992;50.884;13.668;2023-02-01T00:05:26;12.52;;;4.07;;
24961;SDS011;12992;50.884;13.668;2023-02-01T00:07:51;5.97;;;3.60;;
24961;SDS011;12992;50.884;13.668;2023-02-01T00:10:16;8.80;;;3.10;;
24961;SDS011;12992;50.884;13.668;2023-02-01T00:12:42;6.95;;;3.88;;
24961;SDS011;12992;50.884;13.668;2023-02-01T00:15:07;16.15;;;3.75;;
24961;SDS011;12992;50.884;13.668;2023-02-01T00:17:33;11.48;;;3.78;;
24961;SDS011;12992;50.884;13.668;2023-02-01T00:19:58;11.65;;;3.70;;
24961;SDS011;12992;50.884;13.668;2023-02-01T00:22:24;7.88;;;4.05;;
24961;SDS011;12992;50.884;13.668;2023-02-01T00:24:49;7.35;;;3.47;;
24961;SDS011;12992;50.884;13.668;2023-02-01T00:27:15;11.73;;;4.20;;
24961;SDS011;12992;50.884;13.668;2023-02-01T00:29:43;10.20;;;3.75;;
24961;SDS011;12992;50.884;13.668;2023-02-01T00:32:09;12.98;;;3.83;;
24961;SDS011;12992;50.884;13.668;2023-02-01T00:34:35;8.70;;;3.83;;
24961;SDS011;12992;50.884;13.668;2023-02-01T00:37:00;8.23;;;3.80;;
24961;SDS011;12992;50.884;13.668;2023-02-01T00:39:26;10.93;;;3.50;;
24961;SDS011;12992;50.884;13.668;2023-02-01T00:41:51;8.93;;;3.47;;
24961;SDS011;12992;50.884;13.668;2023-02-01T00:44:16;8.82;;;3.47;;
24961;SDS011;12992;50.884;13.668;2023-02-01T00:46:42;7.63;;;3.53;;
24961;SDS011;12992;50.884;13.668;2023-02-01T00:49:07;9.32;;;3.53;;
24961;SDS011;12992;50.884;13.668;2023-02-01T00:51:34;8.07;;;3.92;;
24961;SDS011;12992;50.884;13.668;2023-02-01T00:54:00;5.25;;;3.15;;
24961;SDS011;12992;50.884;13.668;2023-02-01T00:56:25;7.35;;;2.80;;
24961;SDS011;12992;50.884;13.668;2023-02-01T00:58:52;6.03;;;3.38;;
24961;SDS011;12992;50.884;13.668;2023-02-01T01:01:19;9.68;;;2.95;;
24961;SDS011;12992;50.884;13.668;2023-02-01T01:03:48;5.57;;;2.83;;
24961;SDS011;12992;50.884;13.668;2023-02-01T01:06:16;8.95;;;3.05;;
24961;SDS011;12992;50.884;13.668;2023-02-01T01:08:44;10.00;;;2.88;;
24961;SDS011;12992;50.884;13.668;2023-02-01T01:11:14;9.00;;;3.00;;
24961;SDS011;12992;50.884;13.668;2023-02-01T01:13:41;13.07;;;3.30;;
24961;SDS011;12992;50.884;13.668;2023-02-01T01:16:07;11.35;;;2.28;;
24961;SDS011;12992;50.884;13.668;2023-02-01T01:18:34;7.07;;;2.28;;
24961;SDS011;12992;50.884;13.668;2023-02-01T01:21:00;9.85;;;2.70;;
24961;SDS011;12992;50.884;13.668;2023-02-01T01:23:26;9.73;;;2.55;;
24961;SDS011;12992;50.884;13.668;2023-02-01T01:25:52;9.52;;;2.88;;
24961;SDS011;12992;50.884;13.668;2023-02-01T01:28:18;4.85;;;2.38;;
24961;SDS011;12992;50.884;13.668;2023-02-01T01:30:44;4.43;;;2.70;;
24961;SDS011;12992;50.884;13.668;2023-02-01T01:33:09;7.28;;;2.40;;
24961;SDS011;12992;50.884;13.668;2023-02-01T01:35:35;8.82;;;2.83;;
24961;SDS011;12992;50.884;13.668;2023-02-01T01:38:00;8.88;;;2.70;;
24961;SDS011;12992;50.884;13.668;2023-02-01T01:40:27;5.35;;;2.35;;
24961;SDS011;12992;50.884;13.668;2023-02-01T01:42:53;5.93;;;2.25;;
24961;SDS011;12992;50.884;13.668;2023-02-01T01:45:22;5.85;;;2.47;;
24961;SDS011;12992;50.884;13.668;2023-02-01T01:47:54;10.10;;;2.70;;
24961;SDS011;12992;50.884;13.668;2023-02-01T01:50:27;8.18;;;2.50;;
24961;SDS011;12992;50.884;13.668;2023-02-01T01:52:55;8.68;;;2.70;;
24961;SDS011;12992;50.884;13.668;2023-02-01T01:55:24;6.30;;;2.40;;
24961;SDS011;12992;50.884;13.668;2023-02-01T01:57:55;5.97;;;2.40;;
24961;SDS011;12992;50.884;13.668;2023-02-01T02:00:24;10.20;;;2.53;;
24961;SDS011;12992;50.884;13.668;2023-02-01T02:02:53;4.30;;;1.95;;
24961;SDS011;12992;50.884;13.668;2023-02-01T02:05:23;7.23;;;2.20;;
24961;SDS011;12992;50.884;13.668;2023-02-01T02:07:49;6.97;;;2.70;;
24961;SDS011;12992;50.884;13.668;2023-02-01T02:10:17;7.95;;;2.58;;
24961;SDS011;12992;50.884;13.668;2023-02-01T02:12:43;5.90;;;2.55;;
24961;SDS011;12992;50.884;13.668;2023-02-01T02:15:14;11.30;;;2.83;;
24961;SDS011;12992;50.884;13.668;2023-02-01T02:17:55;5.93;;;2.00;;
24961;SDS011;12992;50.884;13.668;2023-02-01T02:29:06;8.32;;;2.67;;
24961;SDS011;12992;50.884;13.668;2023-02-01T02:34:42;10.23;;;2.80;;
24961;SDS011;12992;50.884;13.668;2023-02-01T02:37:28;7.80;;;2.83;;
24961;SDS011;12992;50.884;13.668;2023-02-01T02:40:43;8.30;;;2.63;;
24961;SDS011;12992;50.884;13.668;2023-02-01T02:43:20;6.88;;;2.50;;
24961;SDS011;12992;50.884;13.668;2023-02-01T02:46:08;13.57;;;2.70;;
24961;SDS011;12992;50.884;13.668;2023-02-01T02:49:11;10.20;;;2.70;;
24961;SDS011;12992;50.884;13.668;2023-02-01T02:51:46;7.25;;;2.15;;
24961;SDS011;12992;50.884;13.668;2023-02-01T02:54:37;7.88;;;2.70;;
24961;SDS011;12992;50.884;13.668;2023-02-01T02:57:25;8.73;;;2.65;;
24961;SDS011;12992;50.884;13.668;2023-02-01T03:00:14;6.47;;;2.47;;
24961;SDS011;12992;50.884;13.668;2023-02-01T03:03:01;7.95;;;2.28;;
24961;SDS011;12992;50.884;13.668;2023-02-01T03:05:46;5.82;;;2.55;;
24961;SDS011;12992;50.884;13.668;2023-02-01T03:08:23;6.28;;;2.40;;
24961;SDS011;12992;50.884;13.668;2023-02-01T03:11:04;10.40;;;2.53;;
24961;SDS011;12992;50.884;13.668;2023-02-01T03:13:51;12.50;;;2.47;;
24961;SDS011;12992;50.884;13.668;2023-02-01T03:19:06;9.95;;;2.78;;
24961;SDS011;12992;50.884;13.668;2023-02-01T03:24:23;8.70;;;2.50;;
24961;SDS011;12992;50.884;13.668;2023-02-01T03:27:14;8.88;;;2.83;;
24961;SDS011;12992;50.884;13.668;2023-02-01T03:29:54;9.13;;;2.97;;
24961;SDS011;12992;50.884;13.668;2023-02-01T03:32:44;9.50;;;2.50;;
24961;SDS011;12992;50.884;13.668;2023-02-01T03:35:33;6.97;;;2.40;;
24961;SDS011;12992;50.884;13.668;2023-02-01T03:41:01;10.13;;;2.38;;
24961;SDS011;12992;50.884;13.668;2023-02-01T03:43:38;10.65;;;2.72;;
24961;SDS011;12992;50.884;13.668;2023-02-01T03:46:12;7.13;;;1.75;;
24961;SDS011;12992;50.884;13.668;2023-02-01T03:48:44;13.40;;;2.35;;
24961;SDS011;12992;50.884;13.668;2023-02-01T03:51:10;10.85;;;2.75;;
24961;SDS011;12992;50.884;13.668;2023-02-01T03:53:36;9.07;;;2.35;;
24961;SDS011;12992;50.884;13.668;2023-02-01T03:56:05;11.63;;;2.28;;
24961;SDS011;12992;50.884;13.668;2023-02-01T03:58:31;9.70;;;2.30;;
24961;SDS011;12992;50.884;13.668;2023-02-01T04:00:57;6.82;;;2.28;;
24961;SDS011;12992;50.884;13.668;2023-02-01T04:03:24;13.43;;;2.40;;
24961;SDS011;12992;50.884;13.668;2023-02-01T04:05:50;8.77;;;2.10;;
24961;SDS011;12992;50.884;13.668;2023-02-01T04:08:18;10.30;;;2.25;;
24961;SDS011;12992;50.884;13.668;2023-02-01T04:10:44;7.75;;;2.08;;
24961;SDS011;12992;50.884;13.668;2023-02-01T04:13:09;10.85;;;2.78;;
24961;SDS011;12992;50.884;13.668;2023-02-01T04:15:34;6.43;;;1.90;;
24961;SDS011;12992;50.884;13.668;2023-02-01T04:18:00;9.25;;;2.35;;
24961;SDS011;12992;50.884;13.668;2023-02-01T04:20:26;7.32;;;1.92;;
24961;SDS011;12992;50.884;13.668;2023-02-01T04:22:51;13.07;;;2.60;;
24961;SDS011;12992;50.884;13.668;2023-02-01T04:25:17;8.73;;;2.28;;
24961;SDS011;12992;50.884;13.668;2023-02-01T04:27:45;9.27;;;2.30;;
24961;SDS011;12992;50.884;13.668;2023-02-01T04:30:11;8.38;;;2.42;;
24961;SDS011;12992;50.884;13.668;2023-02-01T04:32:37;10.38;;;2.70;;
24961;SDS011;12992;50.884;13.668;2023-02-01T04:35:03;7.35;;;2.15;;
24961;SDS011;12992;50.884;13.668;2023-02-01T04:37:29;11.05;;;2.17;;
24961;SDS011;12992;50.884;13.668;2023-02-01T04:39:54;3.58;;;2.00;;
24961;SDS011;12992;50.884;13.668;2023-02-01T04:42:20;10.63;;;2.03;;
24961;SDS011;12992;50.884;13.668;2023-02-01T04:44:45;11.45;;;2.65;;
24961;SDS011;12992;50.884;13.668;2023-02-01T04:47:10;8.13;;;2.20;;
24961;SDS011;12992;50.884;13.668;2023-02-01T04:49:36;7.53;;;2.03;;
24961;SDS011;12992;50.884;13.668;2023-02-01T04:52:01;8.38;;;2.17;;
24961;SDS011;12992;50.884;13.668;2023-02-01T04:54:26;12.50;;;3.55;;
24961;SDS011;12992;50.884;13.668;2023-02-01T04:56:52;11.63;;;2.95;;
24961;SDS011;12992;50.884;13.668;2023-02-01T04:59:17;6.13;;;2.63;;
24961;SDS011;12992;50.884;13.668;2023-02-01T05:01:42;10.25;;;2.40;;
24961;SDS011;12992;50.884;13.668;2023-02-01T05:04:08;11.20;;;2.33;;
24961;SDS011;12992;50.884;13.668;2023-02-01T05:06:33;8.35;;;2.50;;
24961;SDS011;12992;50.884;13.668;2023-02-01T05:08:59;8.57;;;2.50;;
24961;SDS011;12992;50.884;13.668;2023-02-01T05:11:24;16.20;;;2.65;;
24961;SDS011;12992;50.884;13.668;2023-02-01T05:14:08;7.60;;;2.10;;
24961;SDS011;12992;50.884;13.668;2023-02-01T05:16:33;9.00;;;1.70;;
24961;SDS011;12992;50.884;13.668;2023-02-01T05:18:58;12.45;;;2.60;;
24961;SDS011;12992;50.884;13.668;2023-02-01T05:21:24;13.20;;;2.40;;
24961;SDS011;12992;50.884;13.668;2023-02-01T05:23:49;6.32;;;1.98;;
24961;SDS011;12992;50.884;13.668;2023-02-01T05:26:33;9.60;;;2.40;;
24961;SDS011;12992;50.884;13.668;2023-02-01T05:28:59;11.85;;;2.92;;
24961;SDS011;12992;50.884;13.668;2023-02-01T05:31:24;9.85;;;2.30;;
24961;SDS011;12992;50.884;13.668;2023-02-01T05:33:50;7.03;;;2.22;;
24961;SDS011;12992;50.884;13.668;2023-02-01T05:36:15;10.98;;;2.50;;
24961;SDS011;12992;50.884;13.668;2023-02-01T05:38:40;8.85;;;2.38;;
24961;SDS011;12992;50.884;13.668;2023-02-01T05:41:06;12.30;;;2.30;;
24961;SDS011;12992;50.884;13.668;2023-02-01T05:43:31;11.05;;;2.50;;
24961;SDS011;12992;50.884;13.668;2023-02-01T05:45:57;10.40;;;2.50;;
24961;SDS011;12992;50.884;13.668;2023-02-01T05:48:22;9.95;;;2.38;;
24961;SDS011;12992;50.884;13.668;2023-02-01T05:50:48;12.45;;;2.17;;
24961;SDS011;12992;50.884;13.668;2023-02-01T05:53:13;11.98;;;2.80;;
24961;SDS011;12992;50.884;13.668;2023-02-01T05:55:38;13.32;;;2.38;;
24961;SDS011;12992;50.884;13.668;2023-02-01T05:58:04;10.48;;;2.58;;
24961;SDS011;12992;50.884;13.668;2023-02-01T06:00:30;9.57;;;2.50;;
24961;SDS011;12992;50.884;13.668;2023-02-01T06:02:56;10.35;;;2.70;;
24961;SDS011;12992;50.884;13.668;2023-02-01T06:05:21;11.35;;;2.95;;
24961;SDS011;12992;50.884;13.668;2023-02-01T06:07:47;8.02;;;2.60;;
24961;SDS011;12992;50.884;13.668;2023-02-01T06:10:12;12.38;;;2.75;;
24961;SDS011;12992;50.884;13.668;2023-02-01T06:12:38;12.57;;;2.72;;
24961;SDS011;12992;50.884;13.668;2023-02-01T06:15:03;8.55;;;2.65;;
24961;SDS011;12992;50.884;13.668;2023-02-01T06:17:29;8.63;;;2.55;;
24961;SDS011;12992;50.884;13.668;2023-02-01T06:19:55;15.35;;;2.78;;
24961;SDS011;12992;50.884;13.668;2023-02-01T06:22:20;11.13;;;2.47;;
24961;SDS011;12992;50.884;13.668;2023-02-01T06:24:46;10.82;;;2.45;;
24961;SDS011;12992;50.884;13.668;2023-02-01T06:27:12;12.05;;;3.13;;
24961;SDS011;12992;50.884;13.668;2023-02-01T06:29:38;9.40;;;2.53;;
24961;SDS011;12992;50.884;13.668;2023-02-01T06:32:03;8.13;;;2.22;;
24961;SDS011;12992;50.884;13.668;2023-02-01T06:34:28;11.88;;;2.90;;
24961;SDS011;12992;50.884;13.668;2023-02-01T06:36:54;10.65;;;2.85;;
24961;SDS011;12992;50.884;13.668;2023-02-01T06:39:20;9.43;;;2.65;;
24961;SDS011;12992;50.884;13.668;2023-02-01T06:41:46;8.07;;;2.55;;
24961;SDS011;12992;50.884;13.668;2023-02-01T06:44:12;11.18;;;3.15;;
24961;SDS011;12992;50.884;13.668;2023-02-01T06:46:37;8.13;;;2.55;;
24961;SDS011;12992;50.884;13.668;2023-02-01T06:49:03;8.60;;;2.80;;
24961;SDS011;12992;50.884;13.668;2023-02-01T06:51:28;8.77;;;2.85;;
24961;SDS011;12992;50.884;13.668;2023-02-01T06:53:54;8.50;;;3.17;;
24961;SDS011;12992;50.884;13.668;2023-02-01T06:56:20;4.53;;;2.30;;
24961;SDS011;12992;50.884;13.668;2023-02-01T06:58:45;11.77;;;2.78;;
24961;SDS011;12992;50.884;13.668;2023-02-01T07:01:11;12.65;;;3.47;;
24961;SDS011;12992;50.884;13.668;2023-02-01T07:03:37;9.90;;;2.60;;
24961;SDS011;12992;50.884;13.668;2023-02-01T07:06:03;10.20;;;2.75;;
24961;SDS011;12992;50.884;13.668;2023-02-01T07:08:30;9.55;;;2.88;;
24961;SDS011;12992;50.884;13.668;2023-02-01T07:10:56;9.02;;;2.40;;
24961;SDS011;12992;50.884;13.668;2023-02-01T07:13:22;8.02;;;2.47;;
24961;SDS011;12992;50.884;13.668;2023-02-01T07:15:47;10.18;;;2.88;;
24961;SDS011;12992;50.884;13.668;2023-02-01T07:18:13;7.18;;;2.85;;
24961;SDS011;12992;50.884;13.668;2023-02-01T07:20:40;8.43;;;2.63;;
24961;SDS011;12992;50.884;13.668;2023-02-01T07:23:05;8.90;;;3.28;;
24961;SDS011;12992;50.884;13.668;2023-02-01T07:25:31;8.75;;;2.70;;
24961;SDS011;12992;50.884;13.668;2023-02-01T07:27:56;10.70;;;3.00;;
24961;SDS011;12992;50.884;13.668;2023-02-01T07:30:22;6.38;;;2.72;;
24961;SDS011;12992;50.884;13.668;2023-02-01T07:32:47;12.40;;;3.95;;
24961;SDS011;12992;50.884;13.668;2023-02-01T07:35:13;9.52;;;4.35;;
24961;SDS011;12992;50.884;13.668;2023-02-01T07:37:39;12.90;;;3.33;;
24961;SDS011;12992;50.884;13.668;2023-02-01T07:40:04;10.00;;;3.38;;
24961;SDS011;12992;50.884;13.668;2023-02-01T07:42:30;12.57;;;3.88;;
24961;SDS011;12992;50.884;13.668;2023-02-01T07:44:56;11.27;;;3.38;;
24961;SDS011;12992;50.884;13.668;2023-02-01T07:47:21;11.68;;;3.58;;
24961;SDS011;12992;50.884;13.668;2023-02-01T07:49:46;14.93;;;4.10;;
24961;SDS011;12992;50.884;13.668;2023-02-01T07:52:12;10.10;;;2.90;;
24961;SDS011;12992;50.884;13.668;2023-02-01T07:54:40;8.02;;;3.38;;
24961;SDS011;12992;50.884;13.668;2023-02-01T07:57:05;9.80;;;3.20;;
24961;SDS011;12992;50.884;13.668;2023-02-01T07:59:31;10.00;;;3.47;;
24961;SDS011;12992;50.884;13.668;2023-02-01T08:01:56;9.63;;;3.20;;
24961;SDS011;12992;50.884;13.668;2023-02-01T08:04:21;10.80;;;2.92;;
24961;SDS011;12992;50.884;13.668;2023-02-01T08:06:47;13.95;;;3.00;;
24961;SDS011;12992;50.884;13.668;2023-02-01T08:09:12;9.23;;;3.28;;
24961;SDS011;12992;50.884;13.668;2023-02-01T08:11:38;8.23;;;3.05;;
24961;SDS011;12992;50.884;13.668;2023-02-01T08:14:04;9.70;;;3.28;;
24961;SDS011;12992;50.884;13.668;2023-02-01T08:16:30;13.55;;;2.80;;
24961;SDS011;12992;50.884;13.668;2023-02-01T08:18:55;14.48;;;3.40;;
24961;SDS011;12992;50.884;13.668;2023-02-01T08:21:22;8.93;;;2.95;;
24961;SDS011;12992;50.884;13.668;2023-02-01T08:23:49;10.77;;;3.15;;
24961;SDS011;12992;50.884;13.668;2023-02-01T08:26:18;8.20;;;2.95;;
24961;SDS011;12992;50.884;13.668;2023-02-01T08:28:48;12.68;;;3.15;;
24961;SDS011;12992;50.884;13.668;2023-02-01T08:31:18;16.65;;;3.40;;
24961;SDS011;12992;50.884;13.668;2023-02-01T08:33:47;5.70;;;2.30;;
24961;SDS011;12992;50.884;13.668;2023-02-01T08:36:14;8.43;;;2.60;;
24961;SDS011;12992;50.884;13.668;2023-02-01T08:38:40;6.97;;;2.53;;
24961;SDS011;12992;50.884;13.668;2023-02-01T08:41:09;12.70;;;2.60;;
24961;SDS011;12992;50.884;13.668;2023-02-01T08:43:36;13.03;;;2.50;;
24961;SDS011;12992;50.884;13.668;2023-02-01T08:46:03;7.70;;;2.75;;
24961;SDS011;12992;50.884;13.668;2023-02-01T08:48:28;6.10;;;2.80;;
24961;SDS011;12992;50.884;13.668;2023-02-01T08:50:55;11.75;;;3.08;;
24961;SDS011;12992;50.884;13.668;2023-02-01T08:53:21;11.10;;;3.28;;
24961;SDS011;12992;50.884;13.668;2023-02-01T08:55:47;7.32;;;2.50;;
24961;SDS011;12992;50.884;13.668;2023-02-01T08:58:13;9.43;;;3.08;;
24961;SDS011;12992;50.884;13.668;2023-02-01T09:00:39;8.90;;;2.90;;
24961;SDS011;12992;50.884;13.668;2023-02-01T09:03:05;13.32;;;2.92;;
24961;SDS011;12992;50.884;13.668;2023-02-01T09:05:30;14.63;;;3.40;;
24961;SDS011;12992;50.884;13.668;2023-02-01T09:07:55;8.52;;;2.88;;
24961;SDS011;12992;50.884;13.668;2023-02-01T09:10:21;12.20;;;3.13;;
24961;SDS011;12992;50.884;13.668;2023-02-01T09:12:46;9.98;;;3.13;;
24961;SDS011;12992;50.884;13.668;2023-02-01T09:15:11;9.27;;;2.80;;
24961;SDS011;12992;50.884;13.668;2023-02-01T09:17:37;12.43;;;3.15;;
24961;SDS011;12992;50.884;13.668;2023-02-01T09:20:03;8.25;;;2.80;;
24961;SDS011;12992;50.884;13.668;2023-02-01T09:22:28;11.02;;;2.90;;
24961;SDS011;12992;50.884;13.668;2023-02-01T09:24:54;7.15;;;3.40;;
24961;SDS011;12992;50.884;13.668;2023-02-01T09:27:19;9.27;;;2.90;;
24961;SDS011;12992;50.884;13.668;2023-02-01T09:29:45;9.10;;;3.33;;
24961;SDS011;12992;50.884;13.668;2023-02-01T09:32:14;12.68;;;3.35;;
24961;SDS011;12992;50.884;13.668;2023-02-01T09:34:39;12.25;;;3.60;;
24961;SDS011;12992;50.884;13.668;2023-02-01T09:37:05;11.10;;;3.65;;
24961;SDS011;12992;50.884;13.668;2023-02-01T09:39:30;10.07;;;3.08;;
24961;SDS011;12992;50.884;13.668;2023-02-01T09:47:31;9.35;;;3.50;;
24961;SDS011;12992;50.884;13.668;2023-02-01T09:50:02;6.97;;;2.80;;
24961;SDS011;12992;50.884;13.668;2023-02-01T09:52:52;11.18;;;3.05;;
24961;SDS011;12992;50.884;13.668;2023-02-01T09:58:03;9.52;;;2.75;;
24961;SDS011;12992;50.884;13.668;2023-02-01T10:00:53;11.75;;;3.25;;
24961;SDS011;12992;50.884;13.668;2023-02-01T10:03:22;7.30;;;2.45;;
24961;SDS011;12992;50.884;13.668;2023-02-01T10:06:06;4.20;;;2.60;;
24961;SDS011;12992;50.884;13.668;2023-02-01T10:08:57;4.47;;;2.25;;
24961;SDS011;12992;50.884;13.668;2023-02-01T10:11:31;4.70;;;2.50;;
24961;SDS011;12992;50.884;13.668;2023-02-01T10:14:45;3.97;;;1.85;;
24961;SDS011;12992;50.884;13.668;2023-02-01T10:25:13;3.50;;;2.28;;
24961;SDS011;12992;50.884;13.668;2023-02-01T10:27:44;4.95;;;2.40;;
24961;SDS011;12992;50.884;13.668;2023-02-01T10:30:15;8.82;;;2.83;;
24961;SDS011;12992;50.884;13.668;2023-02-01T10:32:42;2.65;;;2.20;;
24961;SDS011;12992;50.884;13.668;2023-02-01T10:35:51;5.38;;;2.85;;
24961;SDS011;12992;50.884;13.668;2023-02-01T10:38:00;4.75;;;2.88;;
24961;SDS011;12992;50.884;13.668;2023-02-01T10:40:27;9.13;;;3.25;;
24961;SDS011;12992;50.884;13.668;2023-02-01T10:42:53;9.07;;;3.47;;
24961;SDS011;12992;50.884;13.668;2023-02-01T10:45:22;9.02;;;3.90;;
24961;SDS011;12992;50.884;13.668;2023-02-01T10:47:51;8.13;;;3.67;;
24961;SDS011;12992;50.884;13.668;2023-02-01T10:50:37;12.15;;;3.92;;
24961;SDS011;12992;50.884;13.668;2023-02-01T10:53:15;12.23;;;3.65;;
24961;SDS011;12992;50.884;13.668;2023-02-01T10:55:46;8.52;;;4.68;;
24961;SDS011;12992;50.884;13.668;2023-02-01T11:03:41;11.45;;;3.70;;
24961;SDS011;12992;50.884;13.668;2023-02-01T11:08:51;4.38;;;2.85;;
24961;SDS011;12992;50.884;13.668;2023-02-01T11:11:19;8.00;;;3.95;;
24961;SDS011;12992;50.884;13.668;2023-02-01T11:13:45;10.43;;;3.90;;
24961;SDS011;12992;50.884;13.668;2023-02-01T11:16:35;12.23;;;3.90;;
24961;SDS011;12992;50.884;13.668;2023-02-01T11:19:04;12.07;;;3.75;;
24961;SDS011;12992;50.884;13.668;2023-02-01T11:21:31;12.05;;;4.25;;
24961;SDS011;12992;50.884;13.668;2023-02-01T11:24:01;8.07;;;3.47;;
24961;SDS011;12992;50.884;13.668;2023-02-01T11:26:30;8.68;;;3.58;;
24961;SDS011;12992;50.884;13.668;2023-02-01T11:31:34;13.57;;;3.25;;
24961;SDS011;12992;50.884;13.668;2023-02-01T11:34:07;19.23;;;3.28;;
24961;SDS011;12992;50.884;13.668;2023-02-01T11:36:37;8.35;;;3.15;;
24961;SDS011;12992;50.884;13.668;2023-02-01T11:41:43;8.85;;;3.78;;
24961;SDS011;12992;50.884;13.668;2023-02-01T11:44:37;10.90;;;3.43;;
24961;SDS011;12992;50.884;13.668;2023-02-01T11:47:16;15.93;;;3.83;;
24961;SDS011;12992;50.884;13.668;2023-02-01T11:49:59;13.32;;;3.20;;
24961;SDS011;12992;50.884;13.668;2023-02-01T11:58:11;7.85;;;2.78;;
24961;SDS011;12992;50.884;13.668;2023-02-01T12:23:37;6.73;;;2.10;;
24961;SDS011;12992;50.884;13.668;2023-02-01T12:29:24;10.43;;;2.42;;
24961;SDS011;12992;50.884;13.668;2023-02-01T12:40:44;6.38;;;2.17;;
24961;SDS011;12992;50.884;13.668;2023-02-01T12:46:15;6.20;;;2.30;;
24961;SDS011;12992;50.884;13.668;2023-02-01T12:48:57;7.03;;;2.30;;
24961;SDS011;12992;50.884;13.668;2023-02-01T12:51:28;13.77;;;2.50;;
24961;SDS011;12992;50.884;13.668;2023-02-01T12:54:06;7.25;;;2.35;;
24961;SDS011;12992;50.884;13.668;2023-02-01T12:56:40;7.40;;;2.40;;
24961;SDS011;12992;50.884;13.668;2023-02-01T12:59:22;7.95;;;2.40;;
24961;SDS011;12992;50.884;13.668;2023-02-01T13:01:55;8.23;;;2.30;;
24961;SDS011;12992;50.884;13.668;2023-02-01T13:04:29;6.13;;;2.40;;
24961;SDS011;12992;50.884;13.668;2023-02-01T13:07:01;7.97;;;2.70;;
24961;SDS011;12992;50.884;13.668;2023-02-01T13:09:36;7.72;;;2.47;;
24961;SDS011;12992;50.884;13.668;2023-02-01T13:12:12;6.32;;;2.25;;
24961;SDS011;12992;50.884;13.668;2023-02-01T13:14:44;7.90;;;2.80;;
24961;SDS011;12992;50.884;13.668;2023-02-01T13:17:19;6.10;;;2.40;;
24961;SDS011;12992;50.884;13.668;2023-02-01T13:23:05;7.20;;;2.45;;
24961;SDS011;12992;50.884;13.668;2023-02-01T13:25:41;12.95;;;2.50;;
24961;SDS011;12992;50.884;13.668;2023-02-01T13:28:21;9.43;;;2.42;;
24961;SDS011;12992;50.884;13.668;2023-02-01T13:31:06;7.25;;;2.40;;
24961;SDS011;12992;50.884;13.668;2023-02-01T13:33:41;7.40;;;2.35;;
24961;SDS011;12992;50.884;13.668;2023-02-01T13:36:25;7.55;;;2.15;;
24961;SDS011;12992;50.884;13.668;2023-02-01T13:39:04;7.30;;;2.00;;
24961;SDS011;12992;50.884;13.668;2023-02-01T13:44:21;6.07;;;2.00;;
24961;SDS011;12992;50.884;13.668;2023-02-01T13:47:00;5.97;;;2.15;;
24961;SDS011;12992;50.884;13.668;2023-02-01T13:49:29;7.88;;;2.55;;
24961;SDS011;12992;50.884;13.668;2023-02-01T13:51:58;8.07;;;2.75;;
24961;SDS011;12992;50.884;13.668;2023-02-01T13:54:58;6.90;;;1.98;;
24961;SDS011;12992;50.884;13.668;2023-02-01T13:57:43;8.57;;;1.85;;
24961;SDS011;12992;50.884;13.668;2023-02-01T14:03:01;3.95;;;1.95;;
24961;SDS011;12992;50.884;13.668;2023-02-01T14:08:14;5.65;;;1.98;;
24961;SDS011;12992;50.884;13.668;2023-02-01T14:10:53;8.85;;;2.05;;
24961;SDS011;12992;50.884;13.668;2023-02-01T14:13:30;6.10;;;1.88;;
24961;SDS011;12992;50.884;13.668;2023-02-01T14:23:44;8.82;;;2.60;;
24961;SDS011;12992;50.884;13.668;2023-02-01T14:26:15;5.25;;;2.08;;
24961;SDS011;12992;50.884;13.668;2023-02-01T14:28:49;5.05;;;2.13;;
24961;SDS011;12992;50.884;13.668;2023-02-01T14:31:52;9.43;;;2.60;;
24961;SDS011;12992;50.884;13.668;2023-02-01T14:34:19;9.60;;;3.22;;
24961;SDS011;12992;50.884;13.668;2023-02-01T14:36:48;6.35;;;1.90;;
24961;SDS011;12992;50.884;13.668;2023-02-01T14:39:24;7.97;;;2.72;;
24961;SDS011;12992;50.884;13.668;2023-02-01T14:41:55;9.05;;;2.63;;
24961;SDS011;12992;50.884;13.668;2023-02-01T14:44:24;7.32;;;2.42;;
24961;SDS011;12992;50.884;13.668;2023-02-01T14:49:54;7.93;;;2.33;;
24961;SDS011;12992;50.884;13.668;2023-02-01T14:52:23;6.53;;;2.55;;
24961;SDS011;12992;50.884;13.668;2023-02-01T14:55:02;4.78;;;2.10;;
24961;SDS011;12992;50.884;13.668;2023-02-01T14:57:37;9.13;;;2.22;;
24961;SDS011;12992;50.884;13.668;2023-02-01T15:00:07;5.07;;;2.33;;
24961;SDS011;12992;50.884;13.668;2023-02-01T15:02:41;7.82;;;2.35;;
24961;SDS011;12992;50.884;13.668;2023-02-01T15:05:20;5.75;;;2.35;;
24961;SDS011;12992;50.884;13.668;2023-02-01T15:07:49;10.10;;;2.33;;
24961;SDS011;12992;50.884;13.668;2023-02-01T15:10:16;6.82;;;2.40;;
24961;SDS011;12992;50.884;13.668;2023-02-01T15:12:44;7.18;;;2.50;;
24961;SDS011;12992;50.884;13.668;2023-02-01T15:15:17;6.57;;;2.45;;
24961;SDS011;12992;50.884;13.668;2023-02-01T15:17:52;7.55;;;2.63;;
24961;SDS011;12992;50.884;13.668;2023-02-01T15:20:29;6.05;;;2.20;;
24961;SDS011;12992;50.884;13.668;2023-02-01T15:25:28;5.13;;;2.08;;
24961;SDS011;12992;50.884;13.668;2023-02-01T15:27:54;6.00;;;2.35;;
24961;SDS011;12992;50.884;13.668;2023-02-01T15:30:25;5.40;;;2.40;;
24961;SDS011;12992;50.884;13.668;2023-02-01T15:33:04;6.75;;;2.60;;
24961;SDS011;12992;50.884;13.668;2023-02-01T15:35:33;7.25;;;2.80;;
24961;SDS011;12992;50.884;13.668;2023-02-01T15:40:54;6.80;;;3.00;;
24961;SDS011;12992;50.884;13.668;2023-02-01T15:43:21;6.80;;;2.95;;
24961;SDS011;12992;50.884;13.668;2023-02-01T15:45:47;9.75;;;2.90;;
24961;SDS011;12992;50.884;13.668;2023-02-01T15:48:15;9.45;;;3.38;;
24961;SDS011;12992;50.884;13.668;2023-02-01T15:50:46;10.80;;;3.50;;
24961;SDS011;12992;50.884;13.668;2023-02-01T15:53:15;10.60;;;3.42;;
24961;SDS011;12992;50.884;13.668;2023-02-01T15:55:44;4.93;;;3.03;;
24961;SDS011;12992;50.884;13.668;2023-02-01T15:58:17;5.60;;;2.80;;
24961;SDS011;12992;50.884;13.668;2023-02-01T16:00:45;8.07;;;3.33;;
24961;SDS011;12992;50.884;13.668;2023-02-01T16:03:24;7.00;;;3.15;;
24961;SDS011;12992;50.884;13.668;2023-02-01T16:05:57;13.40;;;3.13;;
24961;SDS011;12992;50.884;13.668;2023-02-01T16:08:25;9.25;;;3.60;;
24961;SDS011;12992;50.884;13.668;2023-02-01T16:10:53;9.05;;;3.72;;
24961;SDS011;12992;50.884;13.668;2023-02-01T16:15:49;7.18;;;3.25;;
24961;SDS011;12992;50.884;13.668;2023-02-01T16:18:15;8.10;;;3.55;;
24961;SDS011;12992;50.884;13.668;2023-02-01T16:20:41;7.85;;;3.85;;
24961;SDS011;12992;50.884;13.668;2023-02-01T16:23:07;9.77;;;3.65;;
24961;SDS011;12992;50.884;13.668;2023-02-01T16:25:34;8.45;;;3.47;;
24961;SDS011;12992;50.884;13.668;2023-02-01T16:28:00;9.23;;;4.20;;
24961;SDS011;12992;50.884;13.668;2023-02-01T16:30:25;6.88;;;3.65;;
24961;SDS011;12992;50.884;13.668;2023-02-01T16:32:58;6.82;;;3.95;;
24961;SDS011;12992;50.884;13.668;2023-02-01T16:35:31;13.70;;;3.67;;
24961;SDS011;12992;50.884;13.668;2023-02-01T16:38:02;6.32;;;4.13;;
24961;SDS011;12992;50.884;13.668;2023-02-01T16:40:38;8.00;;;3.70;;
24961;SDS011;12992;50.884;13.668;2023-02-01T16:43:14;10.27;;;3.50;;
24961;SDS011;12992;50.884;13.668;2023-02-01T16:45:47;10.57;;;3.65;;
24961;SDS011;12992;50.884;13.668;2023-02-01T16:48:17;11.80;;;3.35;;
24961;SDS011;12992;50.884;13.668;2023-02-01T16:50:45;9.13;;;3.08;;